This is the latest recevied weather packets stored in our database for station/object VK4ZPK-13. If no packets are shown the sender has not sent any weather packets the latest 10 day(s).
| Time | Temp. | Humidity | Pressure | Rain* | Wind** | Luminosity | Snow |
|---|---|---|---|---|---|---|---|
| 1777610698 | 24.44° C | 74% | 1017 hPa | 0 mm | - | - | - |
| 1777608898 | 23.89° C | 80% | 1017.2 hPa | 0 mm | - | - | - |
| 1777607098 | 22.78° C | 83% | 1017.5 hPa | 0 mm | - | - | - |
| 1777605298 | 24.44° C | 74% | 1017.8 hPa | 0 mm | - | - | - |
| 1777603498 | 23.89° C | 75% | 1018.1 hPa | 0 mm | - | - | - |
| 1777601698 | 25° C | 72% | 1018.5 hPa | 0 mm | - | - | - |
| 1777599899 | 25° C | 73% | 1018.7 hPa | 0 mm | - | - | - |
| 1777598099 | 24.44° C | 76% | 1019.3 hPa | 0 mm | - | - | - |
| 1777596299 | 24.44° C | 77% | 1019.8 hPa | 0 mm | - | - | - |
| 1777594499 | 23.89° C | 81% | 1019.8 hPa | 0 mm | - | - | - |
| 1777592698 | 22.78° C | 87% | 1019.9 hPa | 0 mm | - | - | - |
| 1777590898 | 21.11° C | 95% | 1019.8 hPa | 0 mm | - | - | - |
| 1777589098 | 19.44° C | 94% | 1020 hPa | 0 mm | - | - | - |
| 1777587299 | 18.89° C | 95% | 1019.8 hPa | 0 mm | - | - | - |
| 1777585499 | 18.33° C | 95% | 1019.6 hPa | 0 mm | - | - | - |
| 1777583699 | 17.78° C | 95% | 1019.5 hPa | 0 mm | - | - | - |
| 1777581899 | 17.22° C | 94% | 1019.2 hPa | 0 mm | - | - | - |
| 1777580098 | 17.22° C | 94% | 1018.9 hPa | 0 mm | - | - | - |
| 1777578299 | 17.22° C | 94% | 1018.7 hPa | 0 mm | - | - | - |
| 1777576498 | 17.22° C | 93% | 1018.6 hPa | 0 mm | - | - | - |
| 1777574698 | 17.22° C | 93% | 1018.4 hPa | 0 mm | - | - | - |
| 1777572898 | 17.22° C | 92% | 1018.2 hPa | 0 mm | - | - | - |
| 1777571098 | 17.78° C | 91% | 1018.4 hPa | 0 mm | - | - | - |
| 1777569298 | 17.78° C | 91% | 1018.7 hPa | 0 mm | - | - | - |
| 1777567498 | 18.33° C | 90% | 1018.6 hPa | 0 mm | - | - | - |
* Rain latest hour (hover to see other rain measurements)
** Current wind speed in m/s (hover to see current wind gust speed)